sensor_id;sensor_type;location;lat;lon;timestamp;P1;durP1;ratioP1;P2;durP2;ratioP2
76552;SDS011;65395;53.168;18.156;2023-03-01T00:01:24;48.20;;;17.50;;
76552;SDS011;65395;53.168;18.156;2023-03-01T00:03:52;46.20;;;18.10;;
76552;SDS011;65395;53.168;18.156;2023-03-01T00:06:20;51.90;;;18.10;;
76552;SDS011;65395;53.168;18.156;2023-03-01T00:08:47;50.70;;;17.50;;
76552;SDS011;65395;53.168;18.156;2023-03-01T00:11:17;49.00;;;18.10;;
76552;SDS011;65395;53.168;18.156;2023-03-01T00:13:53;55.10;;;19.50;;
76552;SDS011;65395;53.168;18.156;2023-03-01T00:16:25;49.70;;;19.40;;
76552;SDS011;65395;53.168;18.156;2023-03-01T00:18:55;56.60;;;20.60;;
76552;SDS011;65395;53.168;18.156;2023-03-01T00:21:23;50.40;;;19.60;;
76552;SDS011;65395;53.168;18.156;2023-03-01T00:23:51;60.80;;;21.80;;
76552;SDS011;65395;53.168;18.156;2023-03-01T00:26:19;58.70;;;21.70;;
76552;SDS011;65395;53.168;18.156;2023-03-01T00:28:48;56.90;;;22.10;;
76552;SDS011;65395;53.168;18.156;2023-03-01T00:31:16;50.40;;;19.70;;
76552;SDS011;65395;53.168;18.156;2023-03-01T00:33:45;50.00;;;18.60;;
76552;SDS011;65395;53.168;18.156;2023-03-01T00:36:13;44.90;;;17.10;;
76552;SDS011;65395;53.168;18.156;2023-03-01T00:38:42;44.30;;;17.30;;
76552;SDS011;65395;53.168;18.156;2023-03-01T00:41:11;45.50;;;17.20;;
76552;SDS011;65395;53.168;18.156;2023-03-01T00:43:40;43.30;;;16.10;;
76552;SDS011;65395;53.168;18.156;2023-03-01T00:46:09;46.40;;;17.30;;
76552;SDS011;65395;53.168;18.156;2023-03-01T00:48:38;51.80;;;18.80;;
76552;SDS011;65395;53.168;18.156;2023-03-01T00:51:07;49.60;;;19.60;;
76552;SDS011;65395;53.168;18.156;2023-03-01T00:53:36;49.20;;;17.30;;
76552;SDS011;65395;53.168;18.156;2023-03-01T00:56:05;51.10;;;19.60;;
76552;SDS011;65395;53.168;18.156;2023-03-01T00:58:33;52.80;;;18.10;;
76552;SDS011;65395;53.168;18.156;2023-03-01T01:01:00;51.00;;;19.50;;
76552;SDS011;65395;53.168;18.156;2023-03-01T01:03:33;46.10;;;16.60;;
76552;SDS011;65395;53.168;18.156;2023-03-01T01:06:00;47.30;;;15.80;;
76552;SDS011;65395;53.168;18.156;2023-03-01T01:08:35;41.70;;;15.70;;
76552;SDS011;65395;53.168;18.156;2023-03-01T01:11:01;41.10;;;15.80;;
76552;SDS011;65395;53.168;18.156;2023-03-01T01:13:28;37.00;;;14.80;;
76552;SDS011;65395;53.168;18.156;2023-03-01T01:16:00;43.10;;;16.70;;
76552;SDS011;65395;53.168;18.156;2023-03-01T01:18:27;40.80;;;15.40;;
76552;SDS011;65395;53.168;18.156;2023-03-01T01:20:54;44.50;;;16.50;;
76552;SDS011;65395;53.168;18.156;2023-03-01T01:23:21;47.00;;;16.80;;
76552;SDS011;65395;53.168;18.156;2023-03-01T01:25:48;46.60;;;17.30;;
76552;SDS011;65395;53.168;18.156;2023-03-01T01:28:15;43.40;;;17.40;;
76552;SDS011;65395;53.168;18.156;2023-03-01T01:30:42;43.60;;;16.30;;
76552;SDS011;65395;53.168;18.156;2023-03-01T01:33:08;41.70;;;15.70;;
76552;SDS011;65395;53.168;18.156;2023-03-01T01:35:35;43.20;;;15.80;;
76552;SDS011;65395;53.168;18.156;2023-03-01T01:38:06;44.00;;;15.60;;
76552;SDS011;65395;53.168;18.156;2023-03-01T01:40:33;47.40;;;16.00;;
76552;SDS011;65395;53.168;18.156;2023-03-01T01:43:00;44.40;;;16.60;;
76552;SDS011;65395;53.168;18.156;2023-03-01T01:45:29;45.10;;;17.90;;
76552;SDS011;65395;53.168;18.156;2023-03-01T01:48:02;42.50;;;16.20;;
76552;SDS011;65395;53.168;18.156;2023-03-01T01:50:31;52.90;;;19.30;;
76552;SDS011;65395;53.168;18.156;2023-03-01T01:53:06;53.30;;;21.60;;
76552;SDS011;65395;53.168;18.156;2023-03-01T01:55:40;45.50;;;18.20;;
76552;SDS011;65395;53.168;18.156;2023-03-01T01:58:12;43.60;;;16.40;;
76552;SDS011;65395;53.168;18.156;2023-03-01T02:00:42;49.70;;;18.30;;
76552;SDS011;65395;53.168;18.156;2023-03-01T02:03:11;48.20;;;17.00;;
76552;SDS011;65395;53.168;18.156;2023-03-01T02:05:47;40.50;;;15.70;;
76552;SDS011;65395;53.168;18.156;2023-03-01T02:08:20;43.00;;;15.60;;
76552;SDS011;65395;53.168;18.156;2023-03-01T02:10:49;46.40;;;17.60;;
76552;SDS011;65395;53.168;18.156;2023-03-01T02:13:18;44.90;;;16.40;;
76552;SDS011;65395;53.168;18.156;2023-03-01T02:15:45;44.00;;;16.00;;
76552;SDS011;65395;53.168;18.156;2023-03-01T02:18:12;52.00;;;17.20;;
76552;SDS011;65395;53.168;18.156;2023-03-01T02:20:48;43.10;;;16.20;;
76552;SDS011;65395;53.168;18.156;2023-03-01T02:23:27;41.20;;;14.50;;
76552;SDS011;65395;53.168;18.156;2023-03-01T02:28:45;35.10;;;14.10;;
76552;SDS011;65395;53.168;18.156;2023-03-01T02:31:14;35.90;;;14.20;;
76552;SDS011;65395;53.168;18.156;2023-03-01T02:33:53;34.30;;;14.60;;
76552;SDS011;65395;53.168;18.156;2023-03-01T02:36:23;42.20;;;16.40;;
76552;SDS011;65395;53.168;18.156;2023-03-01T02:38:57;32.30;;;11.50;;
76552;SDS011;65395;53.168;18.156;2023-03-01T02:41:26;29.20;;;12.50;;
76552;SDS011;65395;53.168;18.156;2023-03-01T02:43:55;36.70;;;12.30;;
76552;SDS011;65395;53.168;18.156;2023-03-01T02:46:23;31.30;;;12.50;;
76552;SDS011;65395;53.168;18.156;2023-03-01T02:48:52;39.80;;;13.60;;
76552;SDS011;65395;53.168;18.156;2023-03-01T02:51:24;40.30;;;15.20;;
76552;SDS011;65395;53.168;18.156;2023-03-01T02:54:08;38.00;;;13.50;;
76552;SDS011;65395;53.168;18.156;2023-03-01T02:56:40;36.10;;;12.90;;
76552;SDS011;65395;53.168;18.156;2023-03-01T02:59:09;32.60;;;13.10;;
76552;SDS011;65395;53.168;18.156;2023-03-01T03:01:37;36.60;;;12.40;;
76552;SDS011;65395;53.168;18.156;2023-03-01T03:04:07;34.80;;;12.90;;
76552;SDS011;65395;53.168;18.156;2023-03-01T03:06:36;35.40;;;12.90;;
76552;SDS011;65395;53.168;18.156;2023-03-01T03:09:04;33.80;;;13.40;;
76552;SDS011;65395;53.168;18.156;2023-03-01T03:11:31;38.60;;;12.90;;
76552;SDS011;65395;53.168;18.156;2023-03-01T03:13:58;46.20;;;19.30;;
76552;SDS011;65395;53.168;18.156;2023-03-01T03:16:26;49.60;;;21.00;;
76552;SDS011;65395;53.168;18.156;2023-03-01T03:18:52;41.20;;;17.00;;
76552;SDS011;65395;53.168;18.156;2023-03-01T03:21:19;38.80;;;14.50;;
76552;SDS011;65395;53.168;18.156;2023-03-01T03:23:46;39.90;;;13.60;;
76552;SDS011;65395;53.168;18.156;2023-03-01T03:26:13;41.10;;;13.40;;
76552;SDS011;65395;53.168;18.156;2023-03-01T03:28:41;34.90;;;13.70;;
76552;SDS011;65395;53.168;18.156;2023-03-01T03:31:08;37.90;;;14.10;;
76552;SDS011;65395;53.168;18.156;2023-03-01T03:33:35;35.70;;;14.20;;
76552;SDS011;65395;53.168;18.156;2023-03-01T03:36:02;34.60;;;13.60;;
76552;SDS011;65395;53.168;18.156;2023-03-01T03:38:29;35.40;;;13.00;;
76552;SDS011;65395;53.168;18.156;2023-03-01T03:41:04;36.70;;;14.40;;
76552;SDS011;65395;53.168;18.156;2023-03-01T03:43:35;32.10;;;12.70;;
76552;SDS011;65395;53.168;18.156;2023-03-01T03:46:03;34.00;;;12.20;;
76552;SDS011;65395;53.168;18.156;2023-03-01T03:48:34;30.00;;;11.70;;
76552;SDS011;65395;53.168;18.156;2023-03-01T03:51:02;33.60;;;12.40;;
76552;SDS011;65395;53.168;18.156;2023-03-01T03:53:32;38.20;;;12.60;;
76552;SDS011;65395;53.168;18.156;2023-03-01T03:55:59;39.20;;;13.20;;
76552;SDS011;65395;53.168;18.156;2023-03-01T03:58:26;38.10;;;13.70;;
76552;SDS011;65395;53.168;18.156;2023-03-01T04:00:54;33.60;;;12.50;;
76552;SDS011;65395;53.168;18.156;2023-03-01T04:03:22;38.80;;;14.60;;
76552;SDS011;65395;53.168;18.156;2023-03-01T04:05:52;42.30;;;15.60;;
76552;SDS011;65395;53.168;18.156;2023-03-01T04:08:20;38.80;;;14.60;;
76552;SDS011;65395;53.168;18.156;2023-03-01T04:10:49;35.30;;;14.70;;
76552;SDS011;65395;53.168;18.156;2023-03-01T04:13:19;38.20;;;13.90;;
76552;SDS011;65395;53.168;18.156;2023-03-01T04:15:48;37.50;;;14.80;;
76552;SDS011;65395;53.168;18.156;2023-03-01T04:18:17;39.50;;;14.60;;
76552;SDS011;65395;53.168;18.156;2023-03-01T04:20:45;39.10;;;14.70;;
76552;SDS011;65395;53.168;18.156;2023-03-01T04:23:13;41.40;;;15.50;;
76552;SDS011;65395;53.168;18.156;2023-03-01T04:25:47;37.00;;;14.40;;
76552;SDS011;65395;53.168;18.156;2023-03-01T04:28:22;38.80;;;14.60;;
76552;SDS011;65395;53.168;18.156;2023-03-01T04:30:54;40.30;;;14.80;;
76552;SDS011;65395;53.168;18.156;2023-03-01T04:33:22;38.20;;;14.80;;
76552;SDS011;65395;53.168;18.156;2023-03-01T04:35:50;33.80;;;13.80;;
76552;SDS011;65395;53.168;18.156;2023-03-01T04:38:18;38.90;;;14.10;;
76552;SDS011;65395;53.168;18.156;2023-03-01T04:40:46;35.40;;;13.60;;
76552;SDS011;65395;53.168;18.156;2023-03-01T04:43:13;33.80;;;13.40;;
76552;SDS011;65395;53.168;18.156;2023-03-01T04:45:40;33.20;;;13.10;;
76552;SDS011;65395;53.168;18.156;2023-03-01T04:48:07;32.90;;;13.40;;
76552;SDS011;65395;53.168;18.156;2023-03-01T04:50:35;33.30;;;12.70;;
76552;SDS011;65395;53.168;18.156;2023-03-01T04:53:02;33.90;;;13.00;;
76552;SDS011;65395;53.168;18.156;2023-03-01T04:55:29;36.40;;;13.80;;
76552;SDS011;65395;53.168;18.156;2023-03-01T04:57:56;37.80;;;13.90;;
76552;SDS011;65395;53.168;18.156;2023-03-01T05:00:23;37.20;;;15.20;;
76552;SDS011;65395;53.168;18.156;2023-03-01T05:02:54;41.30;;;14.90;;
76552;SDS011;65395;53.168;18.156;2023-03-01T05:05:24;41.50;;;14.60;;
76552;SDS011;65395;53.168;18.156;2023-03-01T05:08:02;36.70;;;14.90;;
76552;SDS011;65395;53.168;18.156;2023-03-01T05:10:31;34.10;;;14.90;;
76552;SDS011;65395;53.168;18.156;2023-03-01T05:13:01;37.00;;;14.50;;
76552;SDS011;65395;53.168;18.156;2023-03-01T05:15:30;33.50;;;13.30;;
76552;SDS011;65395;53.168;18.156;2023-03-01T05:17:58;32.30;;;14.00;;
76552;SDS011;65395;53.168;18.156;2023-03-01T05:20:27;30.90;;;13.50;;
76552;SDS011;65395;53.168;18.156;2023-03-01T05:22:56;32.90;;;13.60;;
76552;SDS011;65395;53.168;18.156;2023-03-01T05:25:25;30.70;;;13.40;;
76552;SDS011;65395;53.168;18.156;2023-03-01T05:27:52;30.80;;;14.00;;
76552;SDS011;65395;53.168;18.156;2023-03-01T05:30:19;32.50;;;15.70;;
76552;SDS011;65395;53.168;18.156;2023-03-01T05:32:47;37.70;;;15.40;;
76552;SDS011;65395;53.168;18.156;2023-03-01T05:35:16;28.20;;;12.80;;
76552;SDS011;65395;53.168;18.156;2023-03-01T05:37:44;35.40;;;13.90;;
76552;SDS011;65395;53.168;18.156;2023-03-01T05:40:15;32.10;;;13.20;;
76552;SDS011;65395;53.168;18.156;2023-03-01T05:42:44;35.50;;;15.10;;
76552;SDS011;65395;53.168;18.156;2023-03-01T05:45:12;31.90;;;14.00;;
76552;SDS011;65395;53.168;18.156;2023-03-01T05:47:40;36.30;;;14.40;;
76552;SDS011;65395;53.168;18.156;2023-03-01T05:50:11;33.80;;;13.80;;
76552;SDS011;65395;53.168;18.156;2023-03-01T05:52:39;36.70;;;14.10;;
76552;SDS011;65395;53.168;18.156;2023-03-01T05:55:06;35.10;;;13.50;;
76552;SDS011;65395;53.168;18.156;2023-03-01T05:57:33;31.80;;;13.50;;
76552;SDS011;65395;53.168;18.156;2023-03-01T06:00:00;31.80;;;14.80;;
76552;SDS011;65395;53.168;18.156;2023-03-01T06:02:27;30.20;;;14.00;;
76552;SDS011;65395;53.168;18.156;2023-03-01T06:04:55;28.90;;;13.30;;
76552;SDS011;65395;53.168;18.156;2023-03-01T06:07:22;32.10;;;14.00;;
76552;SDS011;65395;53.168;18.156;2023-03-01T06:09:48;34.00;;;13.40;;
76552;SDS011;65395;53.168;18.156;2023-03-01T06:12:15;32.50;;;12.80;;
76552;SDS011;65395;53.168;18.156;2023-03-01T06:14:42;27.80;;;11.50;;
76552;SDS011;65395;53.168;18.156;2023-03-01T06:17:09;34.60;;;12.70;;
76552;SDS011;65395;53.168;18.156;2023-03-01T06:19:35;31.20;;;13.40;;
76552;SDS011;65395;53.168;18.156;2023-03-01T06:22:02;29.50;;;12.20;;
76552;SDS011;65395;53.168;18.156;2023-03-01T06:24:29;31.00;;;13.10;;
76552;SDS011;65395;53.168;18.156;2023-03-01T06:26:56;30.40;;;12.60;;
76552;SDS011;65395;53.168;18.156;2023-03-01T06:29:23;29.50;;;11.80;;
76552;SDS011;65395;53.168;18.156;2023-03-01T06:31:49;28.30;;;12.70;;
76552;SDS011;65395;53.168;18.156;2023-03-01T06:34:16;33.10;;;12.40;;
76552;SDS011;65395;53.168;18.156;2023-03-01T06:36:43;32.60;;;12.90;;
76552;SDS011;65395;53.168;18.156;2023-03-01T06:39:09;30.80;;;12.30;;
76552;SDS011;65395;53.168;18.156;2023-03-01T06:41:36;29.90;;;12.30;;
76552;SDS011;65395;53.168;18.156;2023-03-01T06:44:03;26.40;;;11.90;;
76552;SDS011;65395;53.168;18.156;2023-03-01T06:46:30;27.60;;;11.60;;
76552;SDS011;65395;53.168;18.156;2023-03-01T06:48:57;27.60;;;11.00;;
76552;SDS011;65395;53.168;18.156;2023-03-01T06:51:23;26.40;;;11.80;;
76552;SDS011;65395;53.168;18.156;2023-03-01T06:53:50;25.80;;;11.10;;
76552;SDS011;65395;53.168;18.156;2023-03-01T06:56:17;28.40;;;11.80;;
76552;SDS011;65395;53.168;18.156;2023-03-01T06:58:43;26.10;;;11.30;;
76552;SDS011;65395;53.168;18.156;2023-03-01T07:01:10;26.50;;;10.90;;
76552;SDS011;65395;53.168;18.156;2023-03-01T07:03:37;26.10;;;11.50;;
76552;SDS011;65395;53.168;18.156;2023-03-01T07:06:03;27.30;;;11.30;;
76552;SDS011;65395;53.168;18.156;2023-03-01T07:08:30;24.80;;;10.60;;
76552;SDS011;65395;53.168;18.156;2023-03-01T07:10:57;29.10;;;10.30;;
76552;SDS011;65395;53.168;18.156;2023-03-01T07:13:24;25.00;;;10.90;;
76552;SDS011;65395;53.168;18.156;2023-03-01T07:15:51;26.20;;;9.80;;
76552;SDS011;65395;53.168;18.156;2023-03-01T07:18:18;26.90;;;10.70;;
76552;SDS011;65395;53.168;18.156;2023-03-01T07:20:45;26.10;;;10.90;;
76552;SDS011;65395;53.168;18.156;2023-03-01T07:23:12;21.80;;;9.40;;
76552;SDS011;65395;53.168;18.156;2023-03-01T07:25:38;24.90;;;10.90;;
76552;SDS011;65395;53.168;18.156;2023-03-01T07:28:05;25.10;;;11.30;;
76552;SDS011;65395;53.168;18.156;2023-03-01T07:30:32;29.40;;;10.80;;
76552;SDS011;65395;53.168;18.156;2023-03-01T07:32:59;24.40;;;10.70;;
76552;SDS011;65395;53.168;18.156;2023-03-01T07:35:26;25.30;;;10.00;;
76552;SDS011;65395;53.168;18.156;2023-03-01T07:37:53;23.60;;;10.40;;
76552;SDS011;65395;53.168;18.156;2023-03-01T07:40:20;26.80;;;10.80;;
76552;SDS011;65395;53.168;18.156;2023-03-01T07:42:47;23.80;;;10.40;;
76552;SDS011;65395;53.168;18.156;2023-03-01T07:45:13;23.20;;;10.40;;
76552;SDS011;65395;53.168;18.156;2023-03-01T07:47:40;25.80;;;10.40;;
76552;SDS011;65395;53.168;18.156;2023-03-01T07:50:07;23.30;;;11.10;;
76552;SDS011;65395;53.168;18.156;2023-03-01T07:52:35;26.70;;;10.70;;
76552;SDS011;65395;53.168;18.156;2023-03-01T07:55:01;22.20;;;9.90;;
76552;SDS011;65395;53.168;18.156;2023-03-01T07:57:28;25.00;;;10.20;;
76552;SDS011;65395;53.168;18.156;2023-03-01T07:59:55;21.40;;;9.30;;
76552;SDS011;65395;53.168;18.156;2023-03-01T08:02:21;23.60;;;9.30;;
76552;SDS011;65395;53.168;18.156;2023-03-01T08:04:48;25.70;;;10.40;;
76552;SDS011;65395;53.168;18.156;2023-03-01T08:07:15;22.50;;;10.00;;
76552;SDS011;65395;53.168;18.156;2023-03-01T08:09:42;22.70;;;10.10;;
76552;SDS011;65395;53.168;18.156;2023-03-01T08:12:08;26.80;;;10.70;;
76552;SDS011;65395;53.168;18.156;2023-03-01T08:14:35;25.20;;;11.30;;
76552;SDS011;65395;53.168;18.156;2023-03-01T08:17:02;29.80;;;12.30;;
76552;SDS011;65395;53.168;18.156;2023-03-01T08:19:29;30.20;;;12.90;;
76552;SDS011;65395;53.168;18.156;2023-03-01T08:21:56;24.70;;;11.60;;
76552;SDS011;65395;53.168;18.156;2023-03-01T08:24:24;23.60;;;9.90;;
76552;SDS011;65395;53.168;18.156;2023-03-01T08:26:51;26.70;;;10.50;;
76552;SDS011;65395;53.168;18.156;2023-03-01T08:29:18;27.20;;;10.90;;
76552;SDS011;65395;53.168;18.156;2023-03-01T08:31:45;27.00;;;11.00;;
76552;SDS011;65395;53.168;18.156;2023-03-01T08:34:13;23.60;;;10.20;;
76552;SDS011;65395;53.168;18.156;2023-03-01T08:36:43;24.50;;;9.80;;
76552;SDS011;65395;53.168;18.156;2023-03-01T08:39:12;22.40;;;10.40;;
76552;SDS011;65395;53.168;18.156;2023-03-01T08:41:41;23.20;;;10.40;;
76552;SDS011;65395;53.168;18.156;2023-03-01T08:44:09;25.50;;;10.90;;
76552;SDS011;65395;53.168;18.156;2023-03-01T08:46:38;24.90;;;10.70;;
76552;SDS011;65395;53.168;18.156;2023-03-01T08:49:07;25.40;;;11.40;;
76552;SDS011;65395;53.168;18.156;2023-03-01T08:51:39;20.10;;;9.90;;
76552;SDS011;65395;53.168;18.156;2023-03-01T08:54:07;23.50;;;11.00;;
76552;SDS011;65395;53.168;18.156;2023-03-01T08:56:38;23.40;;;10.80;;
76552;SDS011;65395;53.168;18.156;2023-03-01T08:59:05;21.70;;;10.00;;
76552;SDS011;65395;53.168;18.156;2023-03-01T09:01:32;22.10;;;10.40;;
76552;SDS011;65395;53.168;18.156;2023-03-01T09:03:59;19.80;;;9.90;;
76552;SDS011;65395;53.168;18.156;2023-03-01T09:06:26;22.10;;;9.00;;
76552;SDS011;65395;53.168;18.156;2023-03-01T09:08:53;20.60;;;9.30;;
76552;SDS011;65395;53.168;18.156;2023-03-01T09:11:21;17.40;;;9.10;;
76552;SDS011;65395;53.168;18.156;2023-03-01T09:13:48;26.80;;;9.90;;
76552;SDS011;65395;53.168;18.156;2023-03-01T09:16:16;22.50;;;10.50;;
76552;SDS011;65395;53.168;18.156;2023-03-01T09:18:49;17.50;;;9.00;;
76552;SDS011;65395;53.168;18.156;2023-03-01T09:21:17;23.20;;;9.90;;
76552;SDS011;65395;53.168;18.156;2023-03-01T09:23:45;21.00;;;9.80;;
76552;SDS011;65395;53.168;18.156;2023-03-01T09:26:15;22.30;;;9.60;;
76552;SDS011;65395;53.168;18.156;2023-03-01T09:28:50;22.80;;;10.00;;
76552;SDS011;65395;53.168;18.156;2023-03-01T09:31:20;19.20;;;8.40;;
76552;SDS011;65395;53.168;18.156;2023-03-01T09:33:49;20.80;;;9.60;;
76552;SDS011;65395;53.168;18.156;2023-03-01T09:36:19;20.10;;;9.30;;
76552;SDS011;65395;53.168;18.156;2023-03-01T09:38:47;18.30;;;8.90;;
76552;SDS011;65395;53.168;18.156;2023-03-01T09:41:26;21.80;;;9.30;;
76552;SDS011;65395;53.168;18.156;2023-03-01T09:44:11;19.40;;;9.50;;
76552;SDS011;65395;53.168;18.156;2023-03-01T09:46:47;18.40;;;9.20;;
76552;SDS011;65395;53.168;18.156;2023-03-01T09:49:17;17.10;;;8.60;;
76552;SDS011;65395;53.168;18.156;2023-03-01T09:51:56;21.10;;;8.80;;
76552;SDS011;65395;53.168;18.156;2023-03-01T09:54:34;20.60;;;8.90;;
76552;SDS011;65395;53.168;18.156;2023-03-01T09:59:50;19.60;;;8.60;;
76552;SDS011;65395;53.168;18.156;2023-03-01T10:02:45;20.40;;;8.20;;
76552;SDS011;65395;53.168;18.156;2023-03-01T10:05:27;16.60;;;7.70;;
76552;SDS011;65395;53.168;18.156;2023-03-01T10:08:25;15.60;;;7.30;;
76552;SDS011;65395;53.168;18.156;2023-03-01T10:11:03;15.70;;;7.70;;
76552;SDS011;65395;53.168;18.156;2023-03-01T10:16:23;19.10;;;8.10;;
76552;SDS011;65395;53.168;18.156;2023-03-01T10:19:01;20.80;;;8.50;;
76552;SDS011;65395;53.168;18.156;2023-03-01T10:21:30;15.80;;;8.00;;
76552;SDS011;65395;53.168;18.156;2023-03-01T10:24:10;17.70;;;8.50;;
76552;SDS011;65395;53.168;18.156;2023-03-01T10:26:46;15.50;;;7.70;;
76552;SDS011;65395;53.168;18.156;2023-03-01T10:29:25;14.30;;;7.20;;
76552;SDS011;65395;53.168;18.156;2023-03-01T10:31:58;17.10;;;7.90;;
76552;SDS011;65395;53.168;18.156;2023-03-01T10:34:29;18.40;;;8.20;;
76552;SDS011;65395;53.168;18.156;2023-03-01T10:37:01;16.40;;;7.50;;
76552;SDS011;65395;53.168;18.156;2023-03-01T10:39:37;16.60;;;7.80;;
76552;SDS011;65395;53.168;18.156;2023-03-01T10:42:26;14.80;;;7.70;;
76552;SDS011;65395;53.168;18.156;2023-03-01T10:44:57;16.50;;;8.00;;
76552;SDS011;65395;53.168;18.156;2023-03-01T10:47:26;16.40;;;7.50;;
76552;SDS011;65395;53.168;18.156;2023-03-01T10:49:58;14.40;;;7.50;;
76552;SDS011;65395;53.168;18.156;2023-03-01T10:52:36;15.30;;;7.40;;
76552;SDS011;65395;53.168;18.156;2023-03-01T10:57:54;13.70;;;6.90;;
76552;SDS011;65395;53.168;18.156;2023-03-01T11:00:45;15.70;;;7.00;;
76552;SDS011;65395;53.168;18.156;2023-03-01T11:03:16;13.70;;;6.20;;
76552;SDS011;65395;53.168;18.156;2023-03-01T11:05:52;12.20;;;5.70;;
76552;SDS011;65395;53.168;18.156;2023-03-01T11:11:04;12.00;;;5.30;;
76552;SDS011;65395;53.168;18.156;2023-03-01T11:13:50;12.40;;;5.80;;
76552;SDS011;65395;53.168;18.156;2023-03-01T11:16:24;10.80;;;5.50;;
76552;SDS011;65395;53.168;18.156;2023-03-01T11:18:57;10.50;;;5.50;;
76552;SDS011;65395;53.168;18.156;2023-03-01T11:21:25;10.70;;;5.00;;
76552;SDS011;65395;53.168;18.156;2023-03-01T11:23:54;12.60;;;5.90;;
76552;SDS011;65395;53.168;18.156;2023-03-01T11:26:23;11.20;;;5.40;;
76552;SDS011;65395;53.168;18.156;2023-03-01T11:28:51;11.30;;;6.10;;
76552;SDS011;65395;53.168;18.156;2023-03-01T11:31:24;10.60;;;6.30;;
76552;SDS011;65395;53.168;18.156;2023-03-01T11:34:02;11.20;;;5.70;;
76552;SDS011;65395;53.168;18.156;2023-03-01T11:36:40;11.20;;;6.00;;
76552;SDS011;65395;53.168;18.156;2023-03-01T11:39:18;11.60;;;5.70;;
76552;SDS011;65395;53.168;18.156;2023-03-01T11:42:17;12.00;;;6.20;;
76552;SDS011;65395;53.168;18.156;2023-03-01T11:44:52;11.80;;;6.20;;
76552;SDS011;65395;53.168;18.156;2023-03-01T11:47:28;12.40;;;6.30;;
76552;SDS011;65395;53.168;18.156;2023-03-01T11:50:13;11.90;;;6.10;;
76552;SDS011;65395;53.168;18.156;2023-03-01T11:52:57;14.30;;;6.70;;
76552;SDS011;65395;53.168;18.156;2023-03-01T11:58:41;12.00;;;7.10;;
76552;SDS011;65395;53.168;18.156;2023-03-01T12:01:30;13.10;;;6.60;;
76552;SDS011;65395;53.168;18.156;2023-03-01T12:07:00;12.80;;;6.40;;
76552;SDS011;65395;53.168;18.156;2023-03-01T12:12:28;12.20;;;6.70;;
76552;SDS011;65395;53.168;18.156;2023-03-01T12:20:56;16.50;;;7.40;;
76552;SDS011;65395;53.168;18.156;2023-03-01T12:23:44;14.80;;;8.00;;
76552;SDS011;65395;53.168;18.156;2023-03-01T12:26:34;16.80;;;8.10;;
76552;SDS011;65395;53.168;18.156;2023-03-01T12:29:25;17.80;;;8.20;;
76552;SDS011;65395;53.168;18.156;2023-03-01T12:32:15;16.10;;;7.50;;
76552;SDS011;65395;53.168;18.156;2023-03-01T12:37:42;15.90;;;7.80;;
76552;SDS011;65395;53.168;18.156;2023-03-01T12:40:27;15.00;;;7.90;;
76552;SDS011;65395;53.168;18.156;2023-03-01T12:43:15;17.50;;;7.40;;
76552;SDS011;65395;53.168;18.156;2023-03-01T12:51:28;17.30;;;8.30;;
76552;SDS011;65395;53.168;18.156;2023-03-01T12:53:58;16.00;;;8.00;;
76552;SDS011;65395;53.168;18.156;2023-03-01T12:56:31;16.30;;;7.50;;
76552;SDS011;65395;53.168;18.156;2023-03-01T12:59:09;15.90;;;7.40;;
76552;SDS011;65395;53.168;18.156;2023-03-01T13:01:49;17.70;;;8.40;;
76552;SDS011;65395;53.168;18.156;2023-03-01T13:04:27;13.70;;;7.40;;
76552;SDS011;65395;53.168;18.156;2023-03-01T13:07:16;15.40;;;7.90;;
76552;SDS011;65395;53.168;18.156;2023-03-01T13:10:17;18.10;;;8.20;;
76552;SDS011;65395;53.168;18.156;2023-03-01T13:15:44;16.20;;;8.00;;
76552;SDS011;65395;53.168;18.156;2023-03-01T13:20:59;15.40;;;8.20;;
76552;SDS011;65395;53.168;18.156;2023-03-01T13:23:29;15.70;;;7.60;;
76552;SDS011;65395;53.168;18.156;2023-03-01T13:26:00;17.30;;;7.90;;
76552;SDS011;65395;53.168;18.156;2023-03-01T13:37:13;14.90;;;7.90;;
76552;SDS011;65395;53.168;18.156;2023-03-01T13:39:47;12.70;;;6.90;;
76552;SDS011;65395;53.168;18.156;2023-03-01T13:45:21;16.30;;;7.10;;
76552;SDS011;65395;53.168;18.156;2023-03-01T13:47:53;13.60;;;7.40;;
76552;SDS011;65395;53.168;18.156;2023-03-01T13:50:25;13.50;;;7.20;;
76552;SDS011;65395;53.168;18.156;2023-03-01T13:52:57;11.90;;;6.70;;
76552;SDS011;65395;53.168;18.156;2023-03-01T13:55:30;12.80;;;7.30;;
76552;SDS011;65395;53.168;18.156;2023-03-01T13:58:05;15.10;;;8.10;;
76552;SDS011;65395;53.168;18.156;2023-03-01T14:00:45;14.30;;;7.40;;
76552;SDS011;65395;53.168;18.156;2023-03-01T14:03:15;14.20;;;7.10;;
76552;SDS011;65395;53.168;18.156;2023-03-01T14:08:33;15.50;;;7.10;;
76552;SDS011;65395;53.168;18.156;2023-03-01T14:19:46;12.10;;;7.00;;
76552;SDS011;65395;53.168;18.156;2023-03-01T14:25:02;12.90;;;6.90;;
76552;SDS011;65395;53.168;18.156;2023-03-01T14:27:41;13.00;;;7.10;;
76552;SDS011;65395;53.168;18.156;2023-03-01T14:30:15;13.70;;;7.40;;
76552;SDS011;65395;53.168;18.156;2023-03-01T14:32:52;15.80;;;8.30;;
76552;SDS011;65395;53.168;18.156;2023-03-01T14:35:24;16.70;;;8.60;;
76552;SDS011;65395;53.168;18.156;2023-03-01T14:37:53;18.00;;;7.80;;
76552;SDS011;65395;53.168;18.156;2023-03-01T14:40:21;15.80;;;8.60;;
76552;SDS011;65395;53.168;18.156;2023-03-01T14:42:54;18.10;;;9.00;;
76552;SDS011;65395;53.168;18.156;2023-03-01T14:45:23;18.30;;;8.80;;
76552;SDS011;65395;53.168;18.156;2023-03-01T14:47:51;14.90;;;8.20;;
76552;SDS011;65395;53.168;18.156;2023-03-01T14:50:22;16.80;;;8.50;;
76552;SDS011;65395;53.168;18.156;2023-03-01T14:52:54;16.60;;;9.00;;
76552;SDS011;65395;53.168;18.156;2023-03-01T14:55:25;14.60;;;8.30;;
76552;SDS011;65395;53.168;18.156;2023-03-01T14:57:56;15.10;;;8.10;;
76552;SDS011;65395;53.168;18.156;2023-03-01T15:00:27;15.20;;;8.20;;
76552;SDS011;65395;53.168;18.156;2023-03-01T15:02:56;14.80;;;8.00;;
76552;SDS011;65395;53.168;18.156;2023-03-01T15:05:36;13.00;;;7.20;;
76552;SDS011;65395;53.168;18.156;2023-03-01T15:08:03;15.40;;;7.90;;
76552;SDS011;65395;53.168;18.156;2023-03-01T15:10:32;13.10;;;7.80;;
76552;SDS011;65395;53.168;18.156;2023-03-01T15:15:46;11.80;;;7.20;;
76552;SDS011;65395;53.168;18.156;2023-03-01T15:18:16;14.30;;;7.50;;
76552;SDS011;65395;53.168;18.156;2023-03-01T15:20:53;11.90;;;6.30;;
76552;SDS011;65395;53.168;18.156;2023-03-01T15:23:23;12.90;;;6.40;;
76552;SDS011;65395;53.168;18.156;2023-03-01T15:25:53;10.40;;;6.20;;
76552;SDS011;65395;53.168;18.156;2023-03-01T15:28:26;12.40;;;7.00;;
76552;SDS011;65395;53.168;18.156;2023-03-01T15:33:44;10.90;;;6.10;;
76552;SDS011;65395;53.168;18.156;2023-03-01T15:41:54;11.30;;;6.00;;
76552;SDS011;65395;53.168;18.156;2023-03-01T15:44:26;10.70;;;6.10;;
76552;SDS011;65395;53.168;18.156;2023-03-01T15:46:55;10.80;;;6.00;;
76552;SDS011;65395;53.168;18.156;2023-03-01T15:49:26;14.60;;;8.40;;
76552;SDS011;65395;53.168;18.156;2023-03-01T15:52:01;21.50;;;10.10;;
76552;SDS011;65395;53.168;18.156;2023-03-01T15:54:29;16.10;;;8.50;;